createdAt,value
2022-10-07T00:02:19.254Z,95890.16
2022-10-07T00:04:46.473Z,95899.44
2022-10-07T00:07:15.188Z,95893.00
2022-10-07T00:09:43.504Z,95889.53
2022-10-07T00:12:10.532Z,95897.75
2022-10-07T00:14:37.479Z,95889.28
2022-10-07T00:17:04.393Z,95882.66
2022-10-07T00:19:31.887Z,95882.72
2022-10-07T00:21:58.796Z,95886.50
2022-10-07T00:24:25.878Z,95889.44
2022-10-07T00:26:54.398Z,95888.16
2022-10-07T00:29:24.166Z,95886.78
2022-10-07T00:31:56.943Z,95889.44
2022-10-07T00:34:25.063Z,95884.16
2022-10-07T00:36:52.225Z,95884.47
2022-10-07T00:39:19.190Z,95885.81
2022-10-07T00:41:50.408Z,95873.63
2022-10-07T00:44:39.586Z,95875.25
2022-10-07T00:47:12.398Z,95876.28
2022-10-07T00:49:42.751Z,95865.09
2022-10-07T00:52:09.563Z,95866.47
2022-10-07T00:54:37.626Z,95865.44
2022-10-07T00:57:04.992Z,95856.16
2022-10-07T00:59:33.393Z,95852.50
2022-10-07T01:02:01.572Z,95849.91
2022-10-07T01:04:28.769Z,95843.00
2022-10-07T01:06:56.051Z,95848.78
2022-10-07T01:09:23.076Z,95846.19
2022-10-07T01:11:59.359Z,95842.00
2022-10-07T01:14:40.131Z,95841.69
2022-10-07T01:17:13.762Z,95838.16
2022-10-07T01:20:06.275Z,95832.09
2022-10-07T01:22:46.608Z,95834.47
2022-10-07T01:25:28.510Z,95832.06
2022-10-07T01:28:01.433Z,95833.69
2022-10-07T01:30:31.924Z,95827.06
2022-10-07T01:33:04.387Z,95819.16
2022-10-07T01:35:35.640Z,95825.31
2022-10-07T01:38:10.964Z,95822.69
2022-10-07T01:40:44.213Z,95818.44
2022-10-07T01:43:15.944Z,95817.41
2022-10-07T01:45:43.249Z,95815.59
2022-10-07T01:48:10.309Z,95814.28
2022-10-07T01:50:39.079Z,95815.88
2022-10-07T01:53:31.364Z,95811.16
2022-10-07T01:56:13.150Z,95807.72
2022-10-07T01:59:13.404Z,95811.69
2022-10-07T02:01:47.442Z,95800.72
2022-10-07T02:04:32.256Z,95806.03
2022-10-07T02:07:09.563Z,95809.50
2022-10-07T02:09:40.462Z,95802.88
2022-10-07T02:12:15.463Z,95799.47
2022-10-07T02:14:54.712Z,95796.03
2022-10-07T02:17:28.598Z,95801.91
2022-10-07T02:19:56.839Z,95801.41
2022-10-07T02:22:28.434Z,95804.88
2022-10-07T02:24:59.152Z,95798.50
2022-10-07T02:27:31.283Z,95800.38
2022-10-07T02:30:04.539Z,95792.16
2022-10-07T02:32:36.225Z,95795.59
2022-10-07T02:35:10.840Z,95789.75
2022-10-07T02:37:38.594Z,95788.72
2022-10-07T02:40:12.198Z,95782.59
2022-10-07T02:42:48.249Z,95783.41
2022-10-07T02:45:26.451Z,95785.78
2022-10-07T02:47:59.350Z,95775.69
2022-10-07T02:50:35.424Z,95778.09
2022-10-07T02:53:04.244Z,95778.63
2022-10-07T02:55:32.522Z,95779.19
2022-10-07T02:58:01.970Z,95781.06
2022-10-07T03:00:34.885Z,95782.09
2022-10-07T03:03:05.148Z,95777.59
2022-10-07T03:05:53.503Z,95777.84
2022-10-07T03:08:21.929Z,95775.97
2022-10-07T03:10:49.865Z,95775.72
2022-10-07T03:13:17.332Z,95772.81
2022-10-07T03:15:49.258Z,95775.22
2022-10-07T03:18:28.176Z,95768.56
2022-10-07T03:21:08.691Z,95771.25
2022-10-07T03:23:35.658Z,95770.16
2022-10-07T03:26:02.385Z,95772.59
2022-10-07T03:28:35.203Z,95763.28
2022-10-07T03:31:07.018Z,95756.09
2022-10-07T03:33:37.317Z,95765.66
2022-10-07T03:36:08.226Z,95764.63
2022-10-07T03:38:36.209Z,95754.78
2022-10-07T03:41:04.560Z,95754.25
2022-10-07T03:43:31.457Z,95751.06
2022-10-07T03:46:02.214Z,95746.22
2022-10-07T03:48:30.853Z,95750.22
2022-10-07T03:50:59.628Z,95746.47
2022-10-07T03:53:29.663Z,95749.09
2022-10-07T03:55:58.027Z,95749.31
2022-10-07T03:58:24.858Z,95744.81
2022-10-07T04:00:52.090Z,95746.63
2022-10-07T04:03:18.979Z,95744.81
2022-10-07T04:05:55.787Z,95741.84
2022-10-07T04:08:27.900Z,95740.50
2022-10-07T04:10:55.279Z,95737.03
2022-10-07T04:13:22.104Z,95742.59
2022-10-07T04:15:49.366Z,95739.13
2022-10-07T04:18:16.825Z,95734.59
2022-10-07T04:20:43.743Z,95728.97
2022-10-07T04:23:12.479Z,95732.94
2022-10-07T04:25:43.826Z,95728.69
2022-10-07T04:28:17.348Z,95721.50
2022-10-07T04:30:51.028Z,95715.41
2022-10-07T04:33:21.492Z,95711.66
2022-10-07T04:35:50.387Z,95711.66
2022-10-07T04:38:18.400Z,95716.44
2022-10-07T04:40:50.040Z,95714.31
2022-10-07T04:43:26.871Z,95707.19
2022-10-07T04:46:06.546Z,95705.34
2022-10-07T04:48:36.414Z,95711.19
2022-10-07T04:51:05.101Z,95705.88
2022-10-07T04:53:32.269Z,95699.75
2022-10-07T04:56:00.923Z,95705.88
2022-10-07T04:58:28.949Z,95703.22
2022-10-07T05:00:57.365Z,95698.97
2022-10-07T05:03:26.734Z,95703.72
2022-10-07T05:05:54.943Z,95704.50
2022-10-07T05:08:24.736Z,95698.66
2022-10-07T05:10:56.388Z,95698.38
2022-10-07T05:13:26.463Z,95702.38
2022-10-07T05:15:55.986Z,95703.72
2022-10-07T05:18:25.139Z,95697.91
2022-10-07T05:20:53.080Z,95702.44
2022-10-07T05:23:27.288Z,95700.63
2022-10-07T05:25:58.458Z,95697.19
2022-10-07T05:28:27.597Z,95698.53
2022-10-07T05:31:02.602Z,95701.47
2022-10-07T05:33:31.588Z,95693.75
2022-10-07T05:35:59.137Z,95690.56
2022-10-07T05:38:26.842Z,95696.13
2022-10-07T05:40:59.750Z,95701.97
2022-10-07T05:43:33.372Z,95693.47
2022-10-07T05:46:01.769Z,95703.31
2022-10-07T05:48:36.586Z,95708.38
2022-10-07T05:51:06.163Z,95698.50
2022-10-07T05:53:32.826Z,95696.91
2022-10-07T05:56:04.332Z,95697.16
2022-10-07T05:58:34.951Z,95696.38
2022-10-07T06:01:11.443Z,95695.28
2022-10-07T06:03:40.726Z,95696.63
2022-10-07T06:06:08.972Z,95699.28
2022-10-07T06:08:35.995Z,95699.06
2022-10-07T06:11:23.247Z,95697.72
2022-10-07T06:13:53.910Z,95696.41
2022-10-07T06:16:21.950Z,95695.66
2022-10-07T06:18:50.576Z,95695.13
2022-10-07T06:21:20.205Z,95696.72
2022-10-07T06:23:51.637Z,95704.16
2022-10-07T06:26:22.058Z,95702.28
2022-10-07T06:28:49.053Z,95699.84
2022-10-07T06:31:25.106Z,95708.88
2022-10-07T06:33:57.005Z,95708.28
2022-10-07T06:36:24.075Z,95707.19
2022-10-07T06:38:55.316Z,95706.09
2022-10-07T06:41:27.085Z,95715.13
2022-10-07T06:44:06.243Z,95711.13
2022-10-07T06:46:35.613Z,95707.16
2022-10-07T06:49:02.745Z,95708.53
2022-10-07T06:51:30.141Z,95712.28
2022-10-07T06:53:59.702Z,95717.88
2022-10-07T06:56:27.236Z,95701.41
2022-10-07T06:58:54.002Z,95709.13
2022-10-07T07:01:31.293Z,95707.56
2022-10-07T07:03:59.698Z,95701.97
2022-10-07T07:06:26.487Z,95706.75
2022-10-07T07:08:55.345Z,95705.41
2022-10-07T07:11:37.843Z,95709.66
2022-10-07T07:14:25.808Z,95709.38
2022-10-07T07:16:59.905Z,95702.97
2022-10-07T07:19:28.524Z,95702.94
2022-10-07T07:21:56.244Z,95706.91
2022-10-07T07:24:24.967Z,95701.84
2022-10-07T07:26:52.391Z,95710.63
2022-10-07T07:29:20.251Z,95711.47
2022-10-07T07:31:54.850Z,95707.75
2022-10-07T07:34:24.641Z,95708.31
2022-10-07T07:36:53.640Z,95710.44
2022-10-07T07:39:24.062Z,95709.38
2022-10-07T07:42:03.537Z,95712.34
2022-10-07T07:44:34.081Z,95703.84
2022-10-07T07:47:03.355Z,95715.28
2022-10-07T07:49:32.224Z,95705.16
2022-10-07T07:52:00.785Z,95704.63
2022-10-07T07:54:32.473Z,95704.09
2022-10-07T07:56:59.776Z,95704.41
2022-10-07T07:59:31.118Z,95706.28
2022-10-07T08:01:58.570Z,95703.09
2022-10-07T08:04:25.953Z,95701.50
2022-10-07T08:06:53.752Z,95698.59
2022-10-07T08:09:22.409Z,95697.00
2022-10-07T08:11:49.421Z,95693.03
2022-10-07T08:14:17.604Z,95693.34
2022-10-07T08:16:47.472Z,95692.31
2022-10-07T08:19:15.516Z,95684.59
2022-10-07T08:21:42.512Z,95684.09
2022-10-07T08:24:15.534Z,95675.66
2022-10-07T08:26:43.687Z,95677.53
2022-10-07T08:29:13.571Z,95678.59
2022-10-07T08:31:42.747Z,95684.97
2022-10-07T08:34:11.091Z,95675.41
2022-10-07T08:36:38.225Z,95677.81
2022-10-07T08:39:05.449Z,95673.56
2022-10-07T08:41:47.404Z,95673.28
2022-10-07T08:44:23.659Z,95671.97
2022-10-07T08:46:57.183Z,95667.97
2022-10-07T08:49:36.472Z,95658.66
2022-10-07T08:52:15.359Z,95663.97
2022-10-07T08:54:42.017Z,95661.59
2022-10-07T08:57:16.926Z,95662.66
2022-10-07T08:59:50.221Z,95661.06
2022-10-07T09:02:28.537Z,95660.22
2022-10-07T09:05:05.749Z,95657.06
2022-10-07T09:07:35.852Z,95649.56
2022-10-07T09:10:15.507Z,95650.09
2022-10-07T09:12:49.169Z,95645.31
2022-10-07T09:15:19.790Z,95644.75
2022-10-07T09:17:54.594Z,95637.78
2022-10-07T09:20:26.755Z,95641.69
2022-10-07T09:22:57.513Z,95643.97
2022-10-07T09:25:26.534Z,95636.47
2022-10-07T09:27:57.100Z,95635.38
2022-10-07T09:30:25.918Z,95626.88
2022-10-07T09:32:55.998Z,95623.66
2022-10-07T09:35:24.374Z,95624.47
2022-10-07T09:37:57.994Z,95622.09
2022-10-07T09:40:33.876Z,95617.50
2022-10-07T09:43:09.400Z,95620.81
2022-10-07T09:45:37.706Z,95618.59
2022-10-07T09:48:07.727Z,95614.28
2022-10-07T09:50:38.063Z,95613.91
2022-10-07T09:53:15.317Z,95612.19
2022-10-07T09:55:43.604Z,95609.38
2022-10-07T09:58:20.275Z,95600.16
2022-10-07T10:00:48.885Z,95601.78
2022-10-07T10:03:16.920Z,95595.66
2022-10-07T10:05:53.737Z,95596.03
2022-10-07T10:08:24.655Z,95591.72
2022-10-07T10:10:53.588Z,95591.81
2022-10-07T10:13:27.151Z,95590.25
2022-10-07T10:15:54.178Z,95592.41
2022-10-07T10:18:36.598Z,95585.63
2022-10-07T10:21:23.616Z,95592.53
2022-10-07T10:23:53.040Z,95591.44
2022-10-07T10:26:37.679Z,95581.09
2022-10-07T10:29:17.772Z,95580.31
2022-10-07T10:31:59.823Z,95573.72
2022-10-07T10:34:36.304Z,95574.81
2022-10-07T10:37:14.410Z,95572.34
2022-10-07T10:39:59.499Z,95573.44
2022-10-07T10:42:40.060Z,95564.81
2022-10-07T10:45:15.992Z,95566.09
2022-10-07T10:48:06.287Z,95563.81
2022-10-07T10:50:45.562Z,95560.34
2022-10-07T10:53:42.384Z,95551.06
2022-10-07T10:56:28.075Z,95544.88
2022-10-07T11:24:12.733Z,95529.44
2022-10-07T11:38:44.208Z,95511.94
2022-10-07T11:44:45.997Z,95500.09
2022-10-07T11:47:17.904Z,95491.16
2022-10-07T11:50:14.466Z,95488.03
2022-10-07T12:09:36.431Z,95464.53
2022-10-07T12:12:04.644Z,95466.41
2022-10-07T16:42:02.913Z,95312.84
2022-10-07T16:44:30.552Z,95316.91
2022-10-07T17:25:28.349Z,95327.03
